Capitol Logistics 774


OKBK
Kuwait International Airport
Kuwait City, KW
EBLG
Liège Airport
Liege, BE

Route Details

Aircraft Information
Primary: Boeing 767-300BDSF
Backup: Not Available
Route Data
Distance: 2744nm
Sched. Duration: 6h 20m
Avg. Duration: 6h 17m (-2m)
Times Flown: 2
Recm'd Route: Not Available
Planned Altitude: 34,000ft
Origin Wx: OKBK 311300Z 11013KT 7000 SKC 28/05 Q1014 NOSIG
Dest. Wx: EBLG 311320Z 06009KT 030V100 9999 FEW044 08/M05 Q1028 NOSIG
Notes:

Financial History
Total Freight: 184,248lbs
Average Load: 92,124lbs/flt
Fuel Used: 135,301lbs
Avg. Fuel Used: 67,651lbs/flt
Fuel Expense: $46,002
Avg. Fuel Expense: $23,001
Avg. Fuel Cost: $0.34/lbs
Total Gross Income: $902,815
Pilot Pay: $468
Total Expenses: $97,608
Total Revenue: $755,950
Average Revenue: $451,407.59